Time;durP1;ratioP1;P1;durP2;ratioP2;P2;SDS_P1;SDS_P2;PMS_P1;PMS_P2;Temp;Humidity;BMP_temperature;BMP_pressure;BME280_temperature;BME280_humidity;BME280_pressure;Samples;Min_cycle;Max_cycle;Signal;HPM_P1;HPM_P2
2023/08/26 00:00:47;;;;;;;0.00;0.00;;;;;;;;;;7378591;19;20155;-68
2023/08/26 00:03:16;;;;;;;0.00;0.00;;;;;;;;;;7378141;19;20628;-67
2023/08/26 00:05:48;;;;;;;0.00;0.00;;;;;;;;;;7380354;19;20172;-67
2023/08/26 00:08:17;;;;;;;0.00;0.00;;;;;;;;;;7378867;19;20173;-68
2023/08/26 00:10:46;;;;;;;0.00;0.00;;;;;;;;;;7379001;19;20140;-67
2023/08/26 00:13:18;;;;;;;0.00;0.00;;;;;;;;;;7379652;19;20196;-68
2023/08/26 00:15:47;;;;;;;0.00;0.00;;;;;;;;;;7379515;19;20208;-66
2023/08/26 00:18:16;;;;;;;0.00;0.00;;;;;;;;;;7380416;19;20534;-66
2023/08/26 00:20:45;;;;;;;0.00;0.00;;;;;;;;;;7378410;19;20186;-68
2023/08/26 00:23:15;;;;;;;0.00;0.00;;;;;;;;;;7372228;19;20165;-67
2023/08/26 00:25:44;;;;;;;0.00;0.00;;;;;;;;;;7377643;19;20156;-68
2023/08/26 00:28:13;;;;;;;0.00;0.00;;;;;;;;;;7380316;19;20136;-68
2023/08/26 00:30:45;;;;;;;0.00;0.00;;;;;;;;;;7377137;19;20165;-68
2023/08/26 00:33:14;;;;;;;0.00;0.00;;;;;;;;;;7378332;19;20132;-68
2023/08/26 00:35:46;;;;;;;0.00;0.00;;;;;;;;;;7379066;19;20186;-68
2023/08/26 00:38:15;;;;;;;0.00;0.00;;;;;;;;;;7378261;19;20167;-67
2023/08/26 00:40:44;;;;;;;0.00;0.00;;;;;;;;;;7378446;19;20148;-68
2023/08/26 00:43:13;;;;;;;0.00;0.00;;;;;;;;;;7376952;19;20164;-67
2023/08/26 00:45:46;;;;;;;0.00;0.00;;;;;;;;;;7377742;19;20160;-67
2023/08/26 00:48:16;;;;;;;0.00;0.00;;;;;;;;;;7377393;19;20153;-67
2023/08/26 00:50:46;;;;;;;0.00;0.00;;;;;;;;;;7376155;19;20171;-67
2023/08/26 00:53:16;;;;;;;0.00;0.00;;;;;;;;;;7375870;19;20177;-67
2023/08/26 00:55:46;;;;;;;0.00;0.00;;;20.80;99.90;;;;;;7378099;19;20128;-67
2023/08/26 00:58:16;;;;;;;0.00;0.00;;;20.80;99.90;;;;;;7377631;19;20228;-67
2023/08/26 01:00:48;;;;;;;0.00;0.00;;;20.70;99.90;;;;;;7378606;19;20148;-67
2023/08/26 01:03:18;;;;;;;0.00;0.00;;;20.60;99.90;;;;;;7376806;19;20173;-67
2023/08/26 01:05:46;;;;;;;0.00;0.00;;;20.50;99.90;;;;;;7376574;19;20212;-67
2023/08/26 01:08:16;;;;;;;0.00;0.00;;;20.50;99.90;;;;;;7377699;19;20161;-68
2023/08/26 01:10:54;;;;;;;0.00;0.00;;;20.50;99.90;;;;;;7375834;19;20148;-66
2023/08/26 01:13:28;;;;;;;0.00;0.00;;;20.50;99.90;;;;;;7375571;19;20164;-68
2023/08/26 01:16:01;;;;;;;0.00;0.00;;;20.50;99.90;;;;;;7377854;19;20164;-69
2023/08/26 01:18:31;;;;;;;0.00;0.00;;;20.40;99.90;;;;;;7378128;19;20168;-68
2023/08/26 01:21:01;;;;;;;0.00;0.00;;;20.50;99.90;;;;;;7376679;19;20216;-68
2023/08/26 01:23:41;;;;;;;0.00;0.00;;;20.40;99.90;;;;;;7375418;19;20155;-67
2023/08/26 01:26:10;;;;;;;0.00;0.00;;;20.40;99.90;;;;;;7377534;19;20156;-68
2023/08/26 01:28:39;;;;;;;0.00;0.00;;;20.40;99.90;;;;;;7376423;19;20224;-68
2023/08/26 01:31:12;;;;;;;0.00;0.00;;;20.40;99.90;;;;;;7376367;19;20195;-67
2023/08/26 01:33:49;;;;;;;0.00;0.00;;;20.50;99.90;;;;;;7375151;19;20627;-67
2023/08/26 01:36:22;;;;;;;0.00;0.00;;;20.50;99.90;;;;;;7379100;19;20182;-67
2023/08/26 01:38:54;;;;;;;0.00;0.00;;;20.50;99.90;;;;;;7378165;19;20485;-68
2023/08/26 01:41:25;;;;;;;0.00;0.00;;;20.50;99.90;;;;;;7378344;19;20256;-68
2023/08/26 01:43:55;;;;;;;0.00;0.00;;;20.50;99.90;;;;;;7377575;19;20141;-68
2023/08/26 01:46:37;;;;;;;0.00;0.00;;;20.50;99.90;;;;;;7376746;19;20171;-68
2023/08/26 01:49:05;;;;;;;0.00;0.00;;;20.60;99.90;;;;;;7377393;19;20152;-68
2023/08/26 01:51:35;;;;;;;0.00;0.00;;;20.60;99.90;;;;;;7374805;19;20184;-67
2023/08/26 01:54:08;;;;;;;0.00;0.00;;;20.60;99.90;;;;;;7374619;19;20149;-68
2023/08/26 01:56:37;;;;;;;0.00;0.00;;;20.60;99.90;;;;;;7376176;19;20180;-67
2023/08/26 01:59:06;;;;;;;0.00;0.00;;;20.60;99.90;;;;;;7376395;19;20149;-67
2023/08/26 02:01:35;;;;;;;0.00;0.00;;;20.60;99.90;;;;;;7374854;19;20182;-67
2023/08/26 02:04:04;;;;;;;0.00;0.00;;;20.60;99.90;;;;;;7381323;19;20161;-67
2023/08/26 02:06:33;;;;;;;0.00;0.00;;;20.60;99.90;;;;;;7385068;19;20137;-67
2023/08/26 02:09:02;;;;;;;0.00;0.00;;;20.60;99.90;;;;;;7383379;19;20156;-68
2023/08/26 02:11:33;;;;;;;0.00;0.00;;;20.60;99.90;;;;;;7380981;19;20182;-67
2023/08/26 02:14:03;;;;;;;0.00;0.00;;;20.60;99.90;;;;;;7382197;19;20159;-67
2023/08/26 02:16:32;;;;;;;0.00;0.00;;;;;;;;;;7383204;19;20221;-67
2023/08/26 02:19:00;;;;;;;0.00;0.00;;;20.60;99.90;;;;;;7383756;19;20161;-68
2023/08/26 02:21:29;;;;;;;0.00;0.00;;;20.60;99.90;;;;;;7382057;19;20184;-68
2023/08/26 02:23:58;;;;;;;0.00;0.00;;;20.60;99.90;;;;;;7381203;19;20223;-68
2023/08/26 02:26:27;;;;;;;0.00;0.00;;;20.60;99.90;;;;;;7383296;19;20174;-67
2023/08/26 02:29:01;;;;;;;0.00;0.00;;;;;;;;;;7381558;19;20490;-68
2023/08/26 02:31:31;;;;;;;0.00;0.00;;;;;;;;;;7381063;19;20152;-68
2023/08/26 02:34:00;;;;;;;0.00;0.00;;;;;;;;;;7381423;19;20149;-68
2023/08/26 02:36:30;;;;;;;0.00;0.00;;;;;;;;;;7381924;19;20160;-68
2023/08/26 02:38:59;;;;;;;0.00;0.00;;;20.80;99.90;;;;;;7384461;19;20149;-67
2023/08/26 02:41:28;;;;;;;0.00;0.00;;;20.70;99.90;;;;;;7381599;19;20153;-68
2023/08/26 02:43:59;;;;;;;0.00;0.00;;;20.60;99.90;;;;;;7383217;19;20136;-67
2023/08/26 02:46:28;;;;;;;0.00;0.00;;;20.60;99.90;;;;;;7381783;19;20145;-67
2023/08/26 02:48:56;;;;;;;0.00;0.00;;;20.60;99.90;;;;;;7380164;19;20223;-67
2023/08/26 02:51:25;;;;;;;0.00;0.00;;;20.60;99.90;;;;;;7380536;19;20188;-67
2023/08/26 02:53:55;;;;;;;0.00;0.00;;;20.60;99.90;;;;;;7380032;19;20152;-67
2023/08/26 02:56:24;;;;;;;0.00;0.00;;;20.60;99.90;;;;;;7382326;19;20153;-68
2023/08/26 02:58:53;;;;;;;0.00;0.00;;;20.60;99.90;;;;;;7380832;19;20188;-67
2023/08/26 03:01:24;;;;;;;0.00;0.00;;;20.60;99.90;;;;;;7380729;19;20185;-68
2023/08/26 03:03:53;;;;;;;0.00;0.00;;;20.60;99.90;;;;;;7380174;19;20175;-68
2023/08/26 03:06:22;;;;;;;0.00;0.00;;;20.50;99.90;;;;;;7381904;19;20161;-68
2023/08/26 03:08:51;;;;;;;0.00;0.00;;;20.50;99.90;;;;;;7379203;19;20192;-68
2023/08/26 03:11:19;;;;;;;0.00;0.00;;;20.50;99.90;;;;;;7379547;19;20180;-68
2023/08/26 03:13:52;;;;;;;0.00;0.00;;;20.50;99.90;;;;;;7376992;19;20148;-68
2023/08/26 03:16:20;;;;;;;0.00;0.00;;;20.50;99.90;;;;;;7381414;19;20157;-69
2023/08/26 03:18:52;;;;;;;0.00;0.00;;;20.40;99.90;;;;;;7380018;19;20256;-68
2023/08/26 03:21:21;;;;;;;0.00;0.00;;;20.40;99.90;;;;;;7381772;19;20153;-67
2023/08/26 03:23:50;;;;;;;0.00;0.00;;;20.40;99.90;;;;;;7379717;19;20160;-68
2023/08/26 03:26:18;;;;;;;0.00;0.00;;;20.40;99.90;;;;;;7382069;19;20179;-67
2023/08/26 03:28:47;;;;;;;0.00;0.00;;;20.50;99.90;;;;;;7380173;19;20156;-67
2023/08/26 03:31:16;;;;;;;0.00;0.00;;;20.50;99.90;;;;;;7380043;19;20180;-67
2023/08/26 03:33:51;;;;;;;0.00;0.00;;;20.50;99.90;;;;;;7379755;19;20156;-68
2023/08/26 03:36:20;;;;;;;0.00;0.00;;;20.50;99.90;;;;;;7379676;19;20160;-67
2023/08/26 03:38:49;;;;;;;0.00;0.00;;;20.50;99.90;;;;;;7379450;19;20173;-67
2023/08/26 03:41:18;;;;;;;0.00;0.00;;;20.40;99.90;;;;;;7379532;19;20176;-68
2023/08/26 03:43:47;;;;;;;0.00;0.00;;;20.50;99.90;;;;;;7379507;19;20174;-67
2023/08/26 03:46:15;;;;;;;0.00;0.00;;;20.50;99.90;;;;;;7381576;19;20161;-68
2023/08/26 03:48:44;;;;;;;0.00;0.00;;;20.50;99.90;;;;;;7380361;19;20149;-68
2023/08/26 03:51:15;;;;;;;0.00;0.00;;;20.50;99.90;;;;;;7380662;19;20160;-68
2023/08/26 03:53:44;;;;;;;0.00;0.00;;;20.50;99.90;;;;;;7379203;19;20153;-68
2023/08/26 03:56:13;;;;;;;0.00;0.00;;;20.50;99.90;;;;;;7380362;19;20193;-68
2023/08/26 03:58:42;;;;;;;0.00;0.00;;;20.40;99.90;;;;;;7379286;19;20162;-69
2023/08/26 04:01:11;;;;;;;0.00;0.00;;;20.50;99.90;;;;;;7378953;19;20193;-68
2023/08/26 04:03:40;;;;;;;0.00;0.00;;;20.50;99.90;;;;;;7379447;19;20150;-70
2023/08/26 04:06:08;;;;;;;0.00;0.00;;;20.40;99.90;;;;;;7381386;19;20125;-72
2023/08/26 04:08:40;;;;;;;0.00;0.00;;;20.30;99.90;;;;;;7379003;19;20161;-72
2023/08/26 04:11:09;;;;;;;0.00;0.00;;;;;;;;;;7378938;19;20191;-70
2023/08/26 04:13:38;;;;;;;0.00;0.00;;;;;;;;;;7378530;19;20157;-71
2023/08/26 04:16:07;;;;;;;0.00;0.00;;;;;;;;;;7378280;19;20137;-71
2023/08/26 04:18:36;;;;;;;0.00;0.00;;;;;;;;;;7378971;19;20175;-70
2023/08/26 04:21:05;;;;;;;0.00;0.00;;;;;;;;;;7377665;19;20156;-71
2023/08/26 04:23:34;;;;;;;0.00;0.00;;;;;;;;;;7378399;19;20654;-72
2023/08/26 04:26:05;;;;;;;0.00;0.00;;;;;;;;;;7378663;19;20125;-71
2023/08/26 04:28:35;;;;;;;0.00;0.00;;;;;;;;;;7379092;19;20175;-69
2023/08/26 04:31:06;;;;;;;0.00;0.00;;;;;;;;;;7380381;19;20136;-69
2023/08/26 04:33:35;;;;;;;0.00;0.00;;;;;;;;;;7378001;19;20259;-69
2023/08/26 04:36:04;;;;;;;0.00;0.00;;;;;;;;;;7377098;19;20569;-70
2023/08/26 04:38:33;;;;;;;0.00;0.00;;;;;;;;;;7379015;19;20160;-71
2023/08/26 04:41:06;;;;;;;0.00;0.00;;;;;;;;;;7377678;19;20648;-72
2023/08/26 04:43:35;;;;;;;0.00;0.00;;;;;;;;;;7379221;19;20160;-73
2023/08/26 04:46:05;;;;;;;0.00;0.00;;;;;;;;;;7378092;19;20152;-73
2023/08/26 04:48:34;;;;;;;0.00;0.00;;;;;;;;;;7379586;19;20147;-73
2023/08/26 04:51:03;;;;;;;0.00;0.00;;;;;;;;;;7377116;19;20156;-73
2023/08/26 04:53:32;;;;;;;0.00;0.00;;;;;;;;;;7377329;19;20172;-73
2023/08/26 04:56:01;;;;;;;0.00;0.00;;;;;;;;;;7377927;19;20144;-73
2023/08/26 04:58:33;;;;;;;0.00;0.00;;;;;;;;;;7378862;19;20141;-74
2023/08/26 05:01:02;;;;;;;0.00;0.00;;;;;;;;;;7376591;19;20152;-73
2023/08/26 05:03:31;;;;;;;0.00;0.00;;;;;;;;;;7377296;19;20160;-74
2023/08/26 05:06:00;;;;;;;0.00;0.00;;;;;;;;;;7377853;19;20178;-73
2023/08/26 05:08:30;;;;;;;0.00;0.00;;;;;;;;;;7377836;19;20161;-73
2023/08/26 05:10:59;;;;;;;0.00;0.00;;;;;;;;;;7376134;19;20177;-74
2023/08/26 05:13:28;;;;;;;0.00;0.00;;;;;;;;;;7376969;19;20159;-73
2023/08/26 05:16:00;;;;;;;0.00;0.00;;;;;;;;;;7374708;19;20161;-74
2023/08/26 05:18:30;;;;;;;0.00;0.00;;;;;;;;;;7379200;19;20707;-74
2023/08/26 05:20:59;;;;;;;0.00;0.00;;;;;;;;;;7375786;19;20208;-73
2023/08/26 05:23:28;;;;;;;0.00;0.00;;;;;;;;;;7376196;19;20224;-73
2023/08/26 05:25:57;;;;;;;0.00;0.00;;;;;;;;;;7376593;19;20685;-74
2023/08/26 05:28:26;;;;;;;0.00;0.00;;;;;;;;;;7376261;19;20164;-73
2023/08/26 05:30:55;;;;;;;0.00;0.00;;;;;;;;;;7377532;19;20149;-74
2023/08/26 05:33:27;;;;;;;0.00;0.00;;;;;;;;;;7375843;19;20160;-74
2023/08/26 05:35:56;;;;;;;0.00;0.00;;;;;;;;;;7376651;19;20236;-74
2023/08/26 05:38:25;;;;;;;0.00;0.00;;;;;;;;;;7384086;19;20185;-74
2023/08/26 05:40:55;;;;;;;0.00;0.00;;;;;;;;;;7384876;19;20160;-73
2023/08/26 05:43:29;;;;;;;0.00;0.00;;;;;;;;;;7383774;19;20175;-72
2023/08/26 05:45:58;;;;;;;0.00;0.00;;;;;;;;;;7384140;19;20149;-73
2023/08/26 05:48:30;;;;;;;0.00;0.00;;;;;;;;;;7383405;19;20156;-74
2023/08/26 05:51:00;;;;;;;0.00;0.00;;;;;;;;;;7382085;19;20248;-74
2023/08/26 05:53:31;;;;;;;0.00;0.00;;;;;;;;;;7385923;19;20133;-73
2023/08/26 05:56:00;;;;;;;0.00;0.00;;;;;;;;;;7381788;19;20155;-74
2023/08/26 05:58:29;;;;;;;0.00;0.00;;;;;;;;;;7385423;19;20133;-73
2023/08/26 06:00:58;;;;;;;0.00;0.00;;;;;;;;;;7382975;19;20156;-74
2023/08/26 06:03:27;;;;;;;0.00;0.00;;;;;;;;;;7383937;19;20141;-73
2023/08/26 06:05:58;;;;;;;0.00;0.00;;;;;;;;;;7385489;19;20143;-74
2023/08/26 06:08:27;;;;;;;0.00;0.00;;;;;;;;;;7383823;19;20168;-72
2023/08/26 06:10:57;;;;;;;0.00;0.00;;;;;;;;;;7382987;19;20192;-74
2023/08/26 06:13:26;;;;;;;0.00;0.00;;;;;;;;;;7382473;19;20148;-72
2023/08/26 06:15:59;;;;;;;0.00;0.00;;;;;;;;;;7381126;19;20169;-73
2023/08/26 06:18:29;;;;;;;0.00;0.00;;;;;;;;;;7383499;19;20177;-73
2023/08/26 06:21:00;;;;;;;0.00;0.00;;;;;;;;;;7382408;19;20148;-73
2023/08/26 06:23:29;;;;;;;0.00;0.00;;;;;;;;;;7384712;19;20154;-73
2023/08/26 06:25:59;;;;;;;0.00;0.00;;;;;;;;;;7383879;19;20153;-73
2023/08/26 06:28:28;;;;;;;0.00;0.00;;;;;;;;;;7383674;19;20189;-73
2023/08/26 06:31:00;;;;;;;0.00;0.00;;;;;;;;;;7382463;19;20151;-73
2023/08/26 06:33:33;;;;;;;0.00;0.00;;;;;;;;;;7381470;19;20183;-73
2023/08/26 06:36:05;;;;;;;0.00;0.00;;;;;;;;;;7382997;19;20141;-72
2023/08/26 06:38:34;;;;;;;0.00;0.00;;;;;;;;;;7382180;19;20200;-73
2023/08/26 06:41:03;;;;;;;0.00;0.00;;;;;;;;;;7382425;19;20209;-74
2023/08/26 06:43:33;;;;;;;0.00;0.00;;;;;;;;;;7381362;19;20149;-73
2023/08/26 06:46:05;;;;;;;0.00;0.00;;;;;;;;;;7381481;19;20149;-74
2023/08/26 06:48:34;;;;;;;0.00;0.00;;;;;;;;;;7381255;19;20189;-72
2023/08/26 06:51:06;;;;;;;0.00;0.00;;;;;;;;;;7383650;19;20141;-72
2023/08/26 06:53:36;;;;;;;0.00;0.00;;;;;;;;;;7381512;19;20156;-73
2023/08/26 06:56:05;;;;;;;0.00;0.00;;;;;;;;;;7380871;19;20149;-71
2023/08/26 06:58:34;;;;;;;0.00;0.00;;;;;;;;;;7383626;19;20136;-72
2023/08/26 07:01:03;;;;;;;0.00;0.00;;;;;;;;;;7380744;19;20153;-71
2023/08/26 07:03:32;;;;;;;0.00;0.00;;;;;;;;;;7382852;19;20192;-71
2023/08/26 07:06:01;;;;;;;0.00;0.00;;;;;;;;;;7382001;19;20155;-73
2023/08/26 07:08:33;;;;;;;0.00;0.00;;;;;;;;;;7380524;19;20192;-71
2023/08/26 07:11:02;;;;;;;0.00;0.00;;;;;;;;;;7381009;19;20167;-72
2023/08/26 07:13:31;;;;;;;0.00;0.00;;;;;;;;;;7379472;19;20176;-72
2023/08/26 07:16:00;;;;;;;0.00;0.00;;;;;;;;;;7381310;19;20141;-72
2023/08/26 07:18:29;;;;;;;0.00;0.00;;;;;;;;;;7382147;19;20154;-72
2023/08/26 07:20:59;;;;;;;0.00;0.00;;;;;;;;;;7380241;19;20152;-71
2023/08/26 07:23:28;;;;;;;0.00;0.00;;;;;;;;;;7382399;19;20144;-71
2023/08/26 07:26:00;;;;;;;0.00;0.00;;;;;;;;;;7380644;19;20160;-71
2023/08/26 07:28:29;;;;;;;0.00;0.00;;;;;;;;;;7380328;19;20181;-71
2023/08/26 07:31:04;;;;;;;0.00;0.00;;;;;;;;;;7379852;19;20254;-71
2023/08/26 07:33:33;;;;;;;0.00;0.00;;;;;;;;;;7379183;19;20140;-70
2023/08/26 07:36:05;;;;;;;0.00;0.00;;;;;;;;;;7379096;19;20159;-71
2023/08/26 07:38:34;;;;;;;0.00;0.00;;;;;;;;;;7380121;19;20531;-70
2023/08/26 07:41:06;;;;;;;0.00;0.00;;;;;;;;;;7380572;19;20179;-69
2023/08/26 07:43:37;;;;;;;0.00;0.00;;;;;;;;;;7381934;19;20530;-70
2023/08/26 07:46:06;;;;;;;0.00;0.00;;;;;;;;;;7380908;19;20137;-69
2023/08/26 07:48:35;;;;;;;0.00;0.00;;;;;;;;;;7381610;19;20147;-69
2023/08/26 07:51:04;;;;;;;0.00;0.00;;;;;;;;;;7380485;19;20498;-69
2023/08/26 07:53:33;;;;;;;0.00;0.00;;;;;;;;;;7379395;19;20133;-69
2023/08/26 07:56:02;;;;;;;0.00;0.00;;;;;;;;;;7379297;19;20156;-69
2023/08/26 07:58:34;;;;;;;0.00;0.00;;;;;;;;;;7380813;19;20129;-69
2023/08/26 08:01:03;;;;;;;0.00;0.00;;;;;;;;;;7381515;19;20148;-68
2023/08/26 08:03:32;;;;;;;0.00;0.00;;;;;;;;;;7379510;19;20136;-69
2023/08/26 08:06:01;;;;;;;0.00;0.00;;;;;;;;;;7381916;19;20137;-69
2023/08/26 08:08:30;;;;;;;0.00;0.00;;;;;;;;;;7378379;19;20148;-68
2023/08/26 08:10:59;;;;;;;0.00;0.00;;;;;;;;;;7378237;19;20188;-68
2023/08/26 08:13:27;;;;;;;0.00;0.00;;;;;;;;;;7376400;19;20261;-68
2023/08/26 08:15:59;;;;;;;0.00;0.00;;;;;;;;;;7377195;19;20164;-68
2023/08/26 08:18:28;;;;;;;0.00;0.00;;;;;;;;;;7378188;19;20156;-69
2023/08/26 08:20:57;;;;;;;0.00;0.00;;;;;;;;;;7377982;19;20157;-70
2023/08/26 08:23:26;;;;;;;0.00;0.00;;;;;;;;;;7376168;19;20312;-69
2023/08/26 08:25:55;;;;;;;0.00;0.00;;;;;;;;;;7381742;19;20644;-70
2023/08/26 08:28:24;;;;;;;0.00;0.00;;;;;;;;;;7378808;19;20148;-69
2023/08/26 08:30:53;;;;;;;0.00;0.00;;;;;;;;;;7379498;19;20137;-70
2023/08/26 08:33:24;;;;;;;0.00;0.00;;;;;;;;;;7373810;19;20155;-69
2023/08/26 08:35:53;;;;;;;0.00;0.00;;;;;;;;;;7378067;19;20184;-69
2023/08/26 08:38:22;;;;;;;0.00;0.00;;;;;;;;;;7377434;19;20179;-70
2023/08/26 08:40:51;;;;;;;0.00;0.00;;;;;;;;;;7378417;19;20143;-69
2023/08/26 08:43:21;;;;;;;0.00;0.00;;;;;;;;;;7376129;19;20156;-69
2023/08/26 08:45:51;;;;;;;0.00;0.00;;;;;;;;;;7378011;19;20140;-69
2023/08/26 08:48:21;;;;;;;0.00;0.00;;;;;;;;;;7380078;19;20158;-68
2023/08/26 08:50:53;;;;;;;0.00;0.00;;;;;;;;;;7377454;19;20161;-68
2023/08/26 08:53:25;;;;;;;0.00;0.00;;;;;;;;;;7378787;19;20140;-69
2023/08/26 08:55:55;;;;;;;0.00;0.00;;;;;;;;;;7376727;19;20156;-68
2023/08/26 08:58:24;;;;;;;0.00;0.00;;;;;;;;;;7371533;19;20156;-68
2023/08/26 09:00:54;;;;;;;0.00;0.00;;;;;;;;;;7374638;19;20172;-68
2023/08/26 09:03:24;;;;;;;0.00;0.00;;;;;;;;;;7377623;19;20137;-69
2023/08/26 09:05:56;;;;;;;0.00;0.00;;;;;;;;;;7379195;19;20137;-69
2023/08/26 09:08:26;;;;;;;0.00;0.00;;;;;;;;;;7376651;19;20156;-69
2023/08/26 09:10:56;;;;;;;0.00;0.00;;;;;;;;;;7377242;19;20365;-69
2023/08/26 09:13:25;;;;;;;0.00;0.00;;;;;;;;;;7377172;19;20162;-69
2023/08/26 09:15:54;;;;;;;0.00;0.00;;;;;;;;;;7375218;19;20157;-68
2023/08/26 09:18:23;;;;;;;0.00;0.00;;;;;;;;;;7373765;19;20160;-68
2023/08/26 09:20:52;;;;;;;0.00;0.00;;;;;;;;;;7376879;19;20136;-69
2023/08/26 09:23:24;;;;;;;0.00;0.00;;;;;;;;;;7374686;19;20192;-68
2023/08/26 09:25:56;;;;;;;0.00;0.00;;;;;;;;;;7376591;19;20175;-68
2023/08/26 09:28:26;;;;;;;0.00;0.00;;;;;;;;;;7375379;19;20152;-68
2023/08/26 09:31:05;;;;;;;0.00;0.00;;;;;;;;;;7376671;19;20133;-69
2023/08/26 09:33:34;;;;;;;0.00;0.00;;;;;;;;;;7375264;19;20156;-68
2023/08/26 09:36:04;;;;;;;0.00;0.00;;;;;;;;;;7376921;19;20164;-68
2023/08/26 09:38:44;;;;;;;0.00;0.00;;;;;;;;;;7376807;19;20145;-69
2023/08/26 09:41:19;;;;;;;0.00;0.00;;;;;;;;;;7375508;19;20188;-68
2023/08/26 09:43:48;;;;;;;0.00;0.00;;;;;;;;;;7373657;19;20152;-69
2023/08/26 09:46:22;;;;;;;0.00;0.00;;;;;;;;;;7378521;19;20141;-69
2023/08/26 09:48:51;;;;;;;0.00;0.00;;;;;;;;;;7377832;19;20141;-69
2023/08/26 09:51:27;;;;;;;0.00;0.00;;;;;;;;;;7376586;19;20181;-67
2023/08/26 09:53:59;;;;;;;0.00;0.00;;;;;;;;;;7377989;19;20137;-68
2023/08/26 09:56:30;;;;;;;0.00;0.00;;;;;;;;;;7377286;19;20201;-66
2023/08/26 09:58:59;;;;;;;0.00;0.00;;;;;;;;;;7376108;19;20204;-69
2023/08/26 10:01:28;;;;;;;0.00;0.00;;;;;;;;;;7376722;19;20545;-66
2023/08/26 10:04:09;;;;;;;0.00;0.00;;;;;;;;;;7376550;19;20249;-68
2023/08/26 10:06:39;;;;;;;0.00;0.00;;;;;;;;;;7377490;19;20159;-66
2023/08/26 10:09:15;;;;;;;0.00;0.00;;;;;;;;;;7377019;19;20175;-67
2023/08/26 10:11:44;;;;;;;0.00;0.00;;;;;;;;;;7373105;19;20180;-68
2023/08/26 10:14:15;;;;;;;0.00;0.00;;;;;;;;;;7377386;19;20616;-68
2023/08/26 10:16:45;;;;;;;0.00;0.00;;;;;;;;;;7375486;19;20141;-68
2023/08/26 10:19:14;;;;;;;0.00;0.00;;;;;;;;;;7378370;19;20172;-68
2023/08/26 10:21:43;;;;;;;0.00;0.00;;;;;;;;;;7373615;19;20157;-67
2023/08/26 10:24:15;;;;;;;0.00;0.00;;;;;;;;;;7380516;19;20136;-69
2023/08/26 10:26:44;;;;;;;0.00;0.00;;;;;;;;;;7383136;19;20141;-68
2023/08/26 10:29:13;;;;;;;0.00;0.00;;;;;;;;;;7385492;19;20133;-68
2023/08/26 10:31:45;;;;;;;0.00;0.00;;;;;;;;;;7381789;19;20174;-68
2023/08/26 10:34:18;;;;;;;0.00;0.00;;;;;;;;;;7385039;19;20153;-68
2023/08/26 10:36:50;;;;;;;0.00;0.00;;;;;;;;;;7380516;19;20149;-68
2023/08/26 10:39:22;;;;;;;0.00;0.00;;;;;;;;;;7383829;19;20167;-68
2023/08/26 10:42:12;;;;;;;0.00;0.00;;;;;;;;;;7379875;19;20176;-68
2023/08/26 10:44:42;;;;;;;0.00;0.00;;;;;;;;;;7383733;19;20277;-68
2023/08/26 10:47:12;;;;;;;0.00;0.00;;;;;;;;;;7383134;19;20171;-68
2023/08/26 10:49:41;;;;;;;0.00;0.00;;;;;;;;;;7383365;19;20160;-67
2023/08/26 10:52:18;;;;;;;0.00;0.00;;;;;;;;;;7380957;19;20191;-68
2023/08/26 10:54:50;;;;;;;0.00;0.00;;;;;;;;;;7382962;19;20128;-67
2023/08/26 10:57:19;;;;;;;0.00;0.00;;;;;;;;;;7384488;19;20651;-68
2023/08/26 10:59:48;;;;;;;0.00;0.00;;;;;;;;;;7381526;19;20168;-68
2023/08/26 11:02:18;;;;;;;0.00;0.00;;;;;;;;;;7382282;19;20189;-69
2023/08/26 11:04:48;;;;;;;0.00;0.00;;;;;;;;;;7381637;19;20182;-68
2023/08/26 11:07:18;;;;;;;0.00;0.00;;;;;;;;;;7383694;19;20139;-67
2023/08/26 11:09:50;;;;;;;0.00;0.00;;;;;;;;;;7380619;19;20157;-67
2023/08/26 11:12:27;;;;;;;0.00;0.00;;;;;;;;;;7379608;19;20189;-68
2023/08/26 11:14:56;;;;;;;0.00;0.00;;;;;;;;;;7382777;19;20140;-68
2023/08/26 11:17:25;;;;;;;0.00;0.00;;;;;;;;;;7382199;19;20133;-68
2023/08/26 11:19:54;;;;;;;0.00;0.00;;;;;;;;;;7380109;19;20634;-67
2023/08/26 11:22:26;;;;;;;0.00;0.00;;;;;;;;;;7379762;19;20184;-68
2023/08/26 11:24:58;;;;;;;0.00;0.00;;;;;;;;;;7379562;19;20152;-68
2023/08/26 11:27:27;;;;;;;0.00;0.00;;;;;;;;;;7383915;19;20147;-68
2023/08/26 11:29:56;;;;;;;0.00;0.00;;;;;;;;;;7381272;19;20143;-68
2023/08/26 11:32:25;;;;;;;0.00;0.00;;;;;;;;;;7380336;19;20216;-68
2023/08/26 11:34:55;;;;;;;0.00;0.00;;;;;;;;;;7378837;19;20179;-69
2023/08/26 11:37:24;;;;;;;0.00;0.00;;;;;;;;;;7380378;19;20176;-68
2023/08/26 11:39:53;;;;;;;0.00;0.00;;;;;;;;;;7379083;19;20263;-68
2023/08/26 11:42:25;;;;;;;0.00;0.00;;;;;;;;;;7379223;19;20180;-68
2023/08/26 11:44:54;;;;;;;0.00;0.00;;;;;;;;;;7378880;19;20627;-67
2023/08/26 11:47:23;;;;;;;0.00;0.00;;;;;;;;;;7383215;19;20204;-68
2023/08/26 11:49:52;;;;;;;0.00;0.00;;;;;;;;;;7379386;19;20157;-69
2023/08/26 11:52:22;;;;;;;0.00;0.00;;;;;;;;;;7381162;19;20157;-69
2023/08/26 11:54:53;;;;;;;0.00;0.00;;;;;;;;;;7378554;19;20157;-69
2023/08/26 11:57:26;;;;;;;0.00;0.00;;;;;;;;;;7379622;19;20629;-68
2023/08/26 11:59:55;;;;;;;0.10;0.00;;;;;;;;;;7380574;19;20140;-67
2023/08/26 12:02:26;;;;;;;0.00;0.00;;;;;;;;;;7378214;19;20184;-67
2023/08/26 12:04:59;;;;;;;0.00;0.00;;;;;;;;;;7381247;19;20129;-68
2023/08/26 12:07:29;;;;;;;0.00;0.00;;;;;;;;;;7382223;19;20156;-68
2023/08/26 12:09:59;;;;;;;0.00;0.00;;;;;;;;;;7380550;19;20141;-68
2023/08/26 12:12:31;;;;;;;0.00;0.00;;;;;;;;;;7377172;19;20451;-66
2023/08/26 12:15:07;;;;;;;0.00;0.00;;;;;;;;;;7381265;19;20128;-68
2023/08/26 12:17:44;;;;;;;0.00;0.00;;;;;;;;;;7378358;19;20153;-68
2023/08/26 12:20:24;;;;;;;0.00;0.00;;;;;;;;;;7379936;19;20196;-67
2023/08/26 12:22:53;;;;;;;0.00;0.00;;;;;;;;;;7377185;19;20153;-69
2023/08/26 12:25:27;;;;;;;0.00;0.00;;;;;;;;;;7381383;19;20200;-68
2023/08/26 12:28:06;;;;;;;0.00;0.00;;;;;;;;;;7378390;19;20157;-68
2023/08/26 12:30:35;;;;;;;0.00;0.00;;;;;;;;;;7380056;19;20160;-68
2023/08/26 12:33:04;;;;;;;0.00;0.00;;;;;;;;;;7377375;19;20149;-68
2023/08/26 12:35:33;;;;;;;0.00;0.00;;;;;;;;;;7381329;19;20212;-69
2023/08/26 12:38:02;;;;;;;0.00;0.00;;;;;;;;;;7376546;19;20160;-68
2023/08/26 12:40:33;;;;;;;0.00;0.00;;;;;;;;;;7379339;19;20186;-68
2023/08/26 12:43:06;;;;;;;0.00;0.00;;;;;;;;;;7375102;19;20172;-68
2023/08/26 12:45:35;;;;;;;0.00;0.00;;;;;;;;;;7379216;19;20185;-68
2023/08/26 12:48:04;;;;;;;0.00;0.00;;;;;;;;;;7375651;19;20153;-68
2023/08/26 12:50:33;;;;;;;0.00;0.00;;;;;;;;;;7379029;19;20156;-68
2023/08/26 12:53:02;;;;;;;0.00;0.00;;;;;;;;;;7374372;19;20184;-68
2023/08/26 12:55:31;;;;;;;0.00;0.00;;;;;;;;;;7379119;19;20152;-68
2023/08/26 12:58:00;;;;;;;0.00;0.00;;;;;;;;;;7378001;19;20954;-69
2023/08/26 13:00:32;;;;;;;0.00;0.00;;;;;;;;;;7378159;19;20168;-68
2023/08/26 13:03:01;;;;;;;0.00;0.00;;;;;;;;;;7376759;19;20151;-68
2023/08/26 13:05:30;;;;;;;0.00;0.00;;;;;;;;;;7380476;19;20145;-68
2023/08/26 13:07:59;;;;;;;0.00;0.00;;;;;;;;;;7379011;19;20656;-68
2023/08/26 13:10:28;;;;;;;0.00;0.00;;;;;;;;;;7379984;19;20152;-68
2023/08/26 13:12:57;;;;;;;0.00;0.00;;;;;;;;;;7376524;19;20152;-68
2023/08/26 13:15:26;;;;;;;0.00;0.00;;;;;;;;;;7379501;19;20162;-68
2023/08/26 13:17:57;;;;;;;0.00;0.00;;;;;;;;;;7376698;19;20137;-69
2023/08/26 13:20:27;;;;;;;0.00;0.00;;;;;;;;;;7377853;19;20157;-68
2023/08/26 13:22:56;;;;;;;0.00;0.00;;;;;;;;;;7373504;19;20204;-67
2023/08/26 13:25:25;;;;;;;0.00;0.00;;;;;;;;;;7377923;19;20149;-68
2023/08/26 13:27:54;;;;;;;0.00;0.00;;;;;;;;;;7377006;19;20778;-67
2023/08/26 13:30:24;;;;;;;0.00;0.00;;;;;;;;;;7376939;19;20161;-68
2023/08/26 13:32:53;;;;;;;0.00;0.00;;;;;;;;;;7373347;19;20196;-68
2023/08/26 13:35:25;;;;;;;0.00;0.00;;;;;;;;;;7377832;19;20156;-68
2023/08/26 13:37:54;;;;;;;0.00;0.00;;;;;;;;;;7378228;19;20141;-68
2023/08/26 13:40:23;;;;;;;0.00;0.00;;;;;;;;;;7378561;19;20137;-67
2023/08/26 13:42:54;;;;;;;0.00;0.00;;;;;;;;;;7375010;19;20163;-68
2023/08/26 13:45:23;;;;;;;0.00;0.00;;;;;;;;;;7377735;19;20144;-68
2023/08/26 13:47:52;;;;;;;0.00;0.00;;;;;;;;;;7378650;19;20148;-67
2023/08/26 13:50:24;;;;;;;0.00;0.00;;;;;;;;;;7377195;19;20185;-69
2023/08/26 13:52:53;;;;;;;0.00;0.00;;;;;;;;;;7375192;19;20148;-68
2023/08/26 13:55:22;;;;;;;0.00;0.00;;;;;;;;;;7376948;19;20157;-68
2023/08/26 13:57:51;;;;;;;0.00;0.00;;;;;;;;;;7379886;19;20137;-68
2023/08/26 14:00:21;;;;;;;0.00;0.00;;;;;;;;;;7383812;19;20195;-68
2023/08/26 14:02:51;;;;;;;0.00;0.00;;;;;;;;;;7382004;19;20176;-68
2023/08/26 14:05:20;;;;;;;0.00;0.00;;;;;;;;;;7386214;19;20144;-68
2023/08/26 14:07:51;;;;;;;0.00;0.00;;;;;;;;;;7382448;19;20386;-69
2023/08/26 14:10:21;;;;;;;0.00;0.00;;;;;;;;;;7383932;19;20149;-68
2023/08/26 14:12:50;;;;;;;0.00;0.00;;;;;;;;;;7379984;19;20282;-68
2023/08/26 14:15:19;;;;;;;0.00;0.00;;;;;;;;;;7384475;19;20166;-69
2023/08/26 14:17:48;;;;;;;0.00;0.00;;;;;;;;;;7383326;19;20179;-67
2023/08/26 14:20:17;;;;;;;0.00;0.00;;;;;;;;;;7385720;19;20152;-68
2023/08/26 14:22:46;;;;;;;0.00;0.00;;;;;;;;;;7381786;19;20500;-68
2023/08/26 14:25:17;;;;;;;0.00;0.00;;;;;;;;;;7385393;19;20144;-68
2023/08/26 14:27:46;;;;;;;0.00;0.00;;;;;;;;;;7385359;19;20129;-69
2023/08/26 14:30:15;;;;;;;0.00;0.00;;;;;;;;;;7385332;19;20136;-68
2023/08/26 14:32:44;;;;;;;0.00;0.00;;;;;;;;;;7382615;19;20224;-68